createdAt,value
2017-09-03T00:00:03.389Z,94.12
2017-09-03T00:01:03.380Z,94.22
2017-09-03T00:02:03.371Z,94.51
2017-09-03T00:03:03.363Z,94.22
2017-09-03T00:04:03.352Z,94.60
2017-09-03T00:05:03.347Z,95.27
2017-09-03T00:06:03.339Z,94.98
2017-09-03T00:07:03.329Z,94.89
2017-09-03T00:08:03.319Z,95.17
2017-09-03T00:09:03.311Z,94.98
2017-09-03T00:10:03.303Z,95.08
2017-09-03T00:11:03.295Z,95.08
2017-09-03T00:12:03.282Z,95.17
2017-09-03T00:13:03.270Z,95.27
2017-09-03T00:14:03.278Z,94.89
2017-09-03T00:15:03.252Z,94.98
2017-09-03T00:16:03.242Z,95.46
2017-09-03T00:17:03.233Z,95.65
2017-09-03T00:18:03.225Z,96.03
2017-09-03T00:19:03.216Z,95.94
2017-09-03T00:20:03.205Z,95.65
2017-09-03T00:21:03.200Z,95.08
2017-09-03T00:22:03.191Z,95.46
2017-09-03T00:23:03.183Z,94.89
2017-09-03T00:24:03.173Z,95.27
2017-09-03T00:25:03.164Z,95.08
2017-09-03T00:26:03.156Z,94.60
2017-09-03T00:27:03.145Z,94.89
2017-09-03T00:28:03.137Z,94.60
2017-09-03T00:29:03.123Z,94.79
2017-09-03T00:30:03.115Z,94.89
2017-09-03T00:31:03.104Z,94.89
2017-09-03T00:32:03.094Z,95.27
2017-09-03T00:33:03.089Z,94.89
2017-09-03T00:34:03.081Z,94.79
2017-09-03T00:35:03.072Z,94.98
2017-09-03T00:36:03.062Z,94.98
2017-09-03T00:37:03.050Z,95.08
2017-09-03T00:38:03.038Z,95.46
2017-09-03T00:39:03.031Z,95.65
2017-09-03T00:40:03.021Z,95.84
2017-09-03T00:41:03.010Z,96.03
2017-09-03T00:42:03.002Z,96.80
2017-09-03T00:43:02.992Z,96.61
2017-09-03T00:44:02.984Z,96.70
2017-09-03T00:45:02.979Z,97.27
2017-09-03T00:46:02.968Z,97.85
2017-09-03T00:47:02.964Z,97.17
2017-09-03T00:48:02.949Z,97.27
2017-09-03T00:49:02.940Z,96.98
2017-09-03T00:50:02.931Z,96.61
2017-09-03T00:51:02.923Z,96.70
2017-09-03T00:52:02.911Z,96.51
2017-09-03T00:53:02.903Z,96.22
2017-09-03T00:54:02.891Z,96.22
2017-09-03T00:55:02.882Z,96.61
2017-09-03T00:56:02.870Z,95.84
2017-09-03T00:57:02.860Z,95.08
2017-09-03T00:58:02.851Z,95.94
2017-09-03T00:59:02.843Z,95.46
2017-09-03T01:00:02.832Z,95.27
2017-09-03T01:01:02.827Z,95.56
2017-09-03T01:02:02.817Z,95.65
2017-09-03T01:03:02.809Z,95.03
2017-09-03T01:04:02.803Z,95.41
2017-09-03T01:05:02.790Z,95.41
2017-09-03T01:06:02.780Z,95.61
2017-09-03T01:07:02.770Z,95.98
2017-09-03T01:08:02.760Z,95.98
2017-09-03T01:09:02.747Z,96.17
2017-09-03T01:10:02.741Z,95.98
2017-09-03T01:11:02.728Z,95.98
2017-09-03T01:12:02.719Z,95.61
2017-09-03T01:13:02.710Z,96.27
2017-09-03T01:14:02.700Z,95.98
2017-09-03T01:15:02.692Z,95.98
2017-09-03T01:16:02.679Z,95.98
2017-09-03T01:17:02.676Z,96.56
2017-09-03T01:18:02.667Z,96.36
2017-09-03T01:19:02.662Z,97.13
2017-09-03T01:20:02.647Z,96.75
2017-09-03T01:21:02.637Z,96.75
2017-09-03T01:22:02.627Z,97.03
2017-09-03T01:23:02.618Z,96.27
2017-09-03T01:24:02.609Z,96.46
2017-09-03T01:25:02.596Z,96.75
2017-09-03T01:26:02.586Z,96.84
2017-09-03T01:27:02.577Z,96.36
2017-09-03T01:28:02.565Z,96.84
2017-09-03T01:29:02.560Z,97.03
2017-09-03T01:30:02.548Z,97.51
2017-09-03T01:31:02.538Z,97.51
2017-09-03T01:32:02.526Z,96.84
2017-09-03T01:33:02.524Z,97.51
2017-09-03T01:34:02.513Z,98.36
2017-09-03T01:35:02.525Z,98.75
2017-09-03T01:36:02.493Z,98.94
2017-09-03T01:37:02.479Z,99.27
2017-09-03T01:38:02.471Z,99.27
2017-09-03T01:39:02.460Z,99.08
2017-09-03T01:40:02.450Z,99.66
2017-09-03T01:41:02.446Z,99.18
2017-09-03T01:42:02.435Z,99.37
2017-09-03T01:43:02.441Z,99.37
2017-09-03T01:44:02.421Z,99.18
2017-09-03T01:45:02.406Z,98.80
2017-09-03T01:46:02.397Z,99.18
2017-09-03T01:47:02.387Z,98.51
2017-09-03T01:48:02.377Z,98.80
2017-09-03T01:49:02.364Z,98.99
2017-09-03T01:50:02.352Z,97.37
2017-09-03T01:51:02.345Z,96.61
2017-09-03T01:52:02.332Z,96.03
2017-09-03T01:53:02.325Z,96.22
2017-09-03T01:54:02.314Z,96.17
2017-09-03T01:55:02.304Z,95.03
2017-09-03T01:56:02.293Z,95.98
2017-09-03T01:57:02.289Z,95.51
2017-09-03T01:58:02.280Z,95.61
2017-09-03T01:59:02.269Z,95.41
2017-09-03T02:00:02.258Z,95.79
2017-09-03T02:01:02.249Z,96.08
2017-09-03T02:02:02.240Z,95.89
2017-09-03T02:03:02.231Z,96.56
2017-09-03T02:04:02.220Z,96.46
2017-09-03T02:05:02.207Z,96.17
2017-09-03T02:06:02.198Z,96.36
2017-09-03T02:07:02.186Z,96.36
2017-09-03T02:08:02.176Z,96.36
2017-09-03T02:09:02.166Z,95.98
2017-09-03T02:10:02.157Z,96.17
2017-09-03T02:11:02.154Z,96.89
2017-09-03T02:12:02.136Z,96.32
2017-09-03T02:13:02.130Z,96.70
2017-09-03T02:14:02.120Z,96.70
2017-09-03T02:15:02.113Z,97.46
2017-09-03T02:16:02.102Z,97.36
2017-09-03T02:17:02.093Z,97.27
2017-09-03T02:18:02.086Z,97.27
2017-09-03T02:19:02.073Z,97.84
2017-09-03T02:20:02.061Z,98.32
2017-09-03T02:21:02.048Z,98.79
2017-09-03T02:22:02.038Z,99.65
2017-09-03T02:23:02.029Z,98.79
2017-09-03T02:24:02.017Z,99.08
2017-09-03T02:25:02.008Z,98.13
2017-09-03T02:26:02.001Z,98.03
2017-09-03T02:27:01.990Z,97.75
2017-09-03T02:28:01.978Z,97.65
2017-09-03T02:29:01.972Z,97.84
2017-09-03T02:30:01.964Z,97.75
2017-09-03T02:31:01.954Z,96.98
2017-09-03T02:32:01.943Z,96.89
2017-09-03T02:33:01.933Z,97.17
2017-09-03T02:34:01.925Z,96.89
2017-09-03T02:35:01.913Z,97.84
2017-09-03T02:36:01.903Z,98.03
2017-09-03T02:37:01.889Z,98.32
2017-09-03T02:38:01.880Z,97.65
2017-09-03T02:39:01.870Z,97.36
2017-09-03T02:40:01.860Z,97.46
2017-09-03T02:41:01.854Z,97.65
2017-09-03T02:42:01.843Z,97.94
2017-09-03T02:43:01.832Z,97.56
2017-09-03T02:44:01.822Z,97.17
2017-09-03T02:45:01.809Z,97.08
2017-09-03T02:46:01.799Z,96.80
2017-09-03T02:47:01.790Z,96.84
2017-09-03T02:48:01.778Z,97.60
2017-09-03T02:49:01.768Z,98.03
2017-09-03T02:50:01.762Z,98.13
2017-09-03T02:51:01.748Z,98.13
2017-09-03T02:52:01.738Z,98.32
2017-09-03T02:53:01.734Z,98.70
2017-09-03T02:54:01.723Z,99.08
2017-09-03T02:55:01.713Z,98.41
2017-09-03T02:56:01.702Z,97.94
2017-09-03T02:57:01.693Z,98.13
2017-09-03T02:58:01.681Z,97.94
2017-09-03T02:59:01.672Z,97.17
2017-09-03T03:00:01.662Z,97.08
2017-09-03T03:01:01.646Z,97.22
2017-09-03T03:02:01.643Z,97.03
2017-09-03T03:03:01.628Z,97.31
2017-09-03T03:04:01.617Z,97.03
2017-09-03T03:05:01.647Z,96.84
2017-09-03T03:06:01.598Z,97.70
2017-09-03T03:07:01.587Z,97.51
2017-09-03T03:08:01.577Z,97.51
2017-09-03T03:09:01.572Z,97.70
2017-09-03T03:10:01.561Z,97.99
2017-09-03T03:11:01.549Z,98.18
2017-09-03T03:12:01.540Z,98.27
2017-09-03T03:13:01.543Z,97.89
2017-09-03T03:14:01.519Z,98.27
2017-09-03T03:15:01.510Z,98.18
2017-09-03T03:16:01.499Z,97.99
2017-09-03T03:17:01.485Z,98.55
2017-09-03T03:18:01.475Z,98.84
2017-09-03T03:19:01.466Z,99.60
2017-09-03T03:20:01.455Z,99.51
2017-09-03T03:21:01.443Z,99.79
2017-09-03T03:22:01.434Z,99.60
2017-09-03T03:23:01.423Z,99.41
2017-09-03T03:24:01.414Z,99.51
2017-09-03T03:25:01.407Z,99.69
2017-09-03T03:26:01.398Z,99.13
2017-09-03T03:27:01.386Z,99.51
2017-09-03T03:28:01.377Z,99.79
2017-09-03T03:29:01.366Z,99.51
2017-09-03T03:30:01.357Z,99.60
2017-09-03T03:31:01.353Z,99.89
2017-09-03T03:32:01.336Z,99.79
2017-09-03T03:33:01.319Z,99.51
2017-09-03T03:34:01.310Z,98.74
2017-09-03T03:35:01.301Z,98.74
2017-09-03T03:36:01.288Z,99.51
2017-09-03T03:37:01.283Z,99.51
2017-09-03T03:38:01.269Z,99.79
2017-09-03T03:39:01.258Z,99.98
2017-09-03T03:40:01.247Z,99.99
2017-09-03T03:41:01.243Z,99.99
2017-09-03T03:42:01.243Z,99.99
2017-09-03T03:43:01.222Z,99.69
2017-09-03T03:44:01.210Z,99.13
2017-09-03T03:45:01.196Z,97.89
2017-09-03T03:46:01.186Z,98.55
2017-09-03T03:47:01.177Z,98.46
2017-09-03T03:48:01.164Z,98.84
2017-09-03T03:49:01.161Z,99.03
2017-09-03T03:50:01.148Z,98.94
2017-09-03T03:51:01.138Z,99.60
2017-09-03T03:52:01.128Z,99.41
2017-09-03T03:53:01.117Z,99.89
2017-09-03T03:54:01.108Z,99.69
2017-09-03T03:55:01.097Z,99.99
2017-09-03T03:56:01.086Z,99.32
2017-09-03T03:57:01.071Z,98.84
2017-09-03T03:58:01.062Z,97.70
2017-09-03T03:59:01.052Z,98.08
2017-09-03T04:00:01.040Z,98.36
2017-09-03T04:01:01.031Z,98.94
2017-09-03T04:02:01.021Z,99.13
2017-09-03T04:03:01.009Z,99.13
2017-09-03T04:04:00.999Z,98.84
2017-09-03T04:05:00.992Z,99.03
2017-09-03T04:06:00.982Z,98.84
2017-09-03T04:07:00.972Z,99.41
2017-09-03T04:08:00.962Z,99.98
2017-09-03T04:09:00.950Z,99.99
2017-09-03T04:10:00.941Z,99.99
2017-09-03T04:11:00.930Z,99.99
2017-09-03T04:12:00.926Z,99.99
2017-09-03T04:13:00.905Z,99.99
2017-09-03T04:14:00.894Z,99.98
2017-09-03T04:15:00.884Z,99.51
2017-09-03T04:16:00.874Z,99.51
2017-09-03T04:17:00.862Z,98.55
2017-09-03T04:18:00.852Z,98.18
2017-09-03T04:19:00.842Z,98.08
2017-09-03T04:20:00.832Z,97.51
2017-09-03T04:21:00.826Z,98.27
2017-09-03T04:22:00.815Z,98.27
2017-09-03T04:23:00.806Z,98.18
2017-09-03T04:24:00.794Z,97.51
2017-09-03T04:25:00.785Z,98.08
2017-09-03T04:26:00.774Z,98.18
2017-09-03T04:27:00.766Z,97.89
2017-09-03T04:28:00.753Z,98.36
2017-09-03T04:29:00.738Z,98.55
2017-09-03T04:30:00.727Z,98.55
2017-09-03T04:31:00.718Z,99.03
2017-09-03T04:32:00.712Z,98.94
2017-09-03T04:33:00.696Z,99.89
2017-09-03T04:34:00.686Z,99.60
2017-09-03T04:35:00.675Z,99.32
2017-09-03T04:36:00.663Z,99.89
2017-09-03T04:37:00.658Z,99.99
2017-09-03T04:38:00.648Z,99.99
2017-09-03T04:39:00.637Z,99.41
2017-09-03T04:40:00.630Z,99.89
2017-09-03T04:41:00.618Z,99.32
2017-09-03T04:42:00.606Z,99.99
2017-09-03T04:43:00.595Z,99.99
2017-09-03T04:44:00.583Z,99.60
2017-09-03T04:45:00.569Z,99.51
2017-09-03T04:46:00.561Z,99.60
2017-09-03T04:47:00.549Z,99.41
2017-09-03T04:48:00.538Z,99.60
2017-09-03T04:49:00.534Z,99.69
2017-09-03T04:50:00.520Z,99.89
2017-09-03T04:51:00.512Z,99.99
2017-09-03T04:52:00.500Z,99.99
2017-09-03T04:53:00.484Z,99.99
2017-09-03T04:54:00.478Z,99.99
2017-09-03T04:55:00.464Z,99.51
2017-09-03T04:56:00.453Z,99.99
2017-09-03T04:57:00.442Z,99.99
2017-09-03T04:58:00.432Z,99.41
2017-09-03T04:59:00.422Z,99.60
2017-09-03T05:00:00.412Z,99.99
2017-09-03T05:01:00.404Z,99.79
2017-09-03T05:02:00.395Z,99.99
2017-09-03T05:03:00.386Z,99.98
2017-09-03T05:04:00.374Z,99.99
2017-09-03T05:05:00.364Z,99.99
2017-09-03T05:06:00.354Z,99.99
2017-09-03T05:07:00.343Z,99.99
2017-09-03T05:08:00.331Z,99.99
2017-09-03T05:09:00.319Z,99.99
2017-09-03T05:10:00.307Z,99.99
2017-09-03T05:11:00.298Z,99.99
2017-09-03T05:12:00.285Z,99.99
2017-09-03T05:13:00.276Z,99.99
2017-09-03T05:14:00.266Z,99.99
2017-09-03T05:15:00.255Z,99.99
2017-09-03T05:16:00.245Z,99.99
2017-09-03T05:17:00.239Z,99.99
2017-09-03T05:18:00.228Z,99.99
2017-09-03T05:19:00.219Z,99.99
2017-09-03T05:20:00.208Z,99.99
2017-09-03T05:21:00.198Z,99.99
2017-09-03T05:22:00.189Z,99.99
2017-09-03T05:23:00.177Z,99.99
2017-09-03T05:24:00.168Z,99.99
2017-09-03T05:25:00.154Z,99.99
2017-09-03T05:26:00.143Z,99.99
2017-09-03T05:27:00.135Z,99.99
2017-09-03T05:28:00.124Z,99.99
2017-09-03T05:29:00.113Z,99.99
2017-09-03T05:30:00.105Z,99.80
2017-09-03T05:31:00.095Z,97.71
2017-09-03T05:32:00.085Z,96.61
2017-09-03T05:33:00.080Z,95.27
2017-09-03T05:34:00.071Z,93.98
2017-09-03T05:35:00.062Z,93.40
2017-09-03T05:36:00.063Z,92.45
2017-09-03T05:37:00.045Z,91.44
2017-09-03T05:38:00.034Z,90.58
2017-09-03T05:39:00.026Z,90.96
2017-09-03T05:40:00.017Z,90.10
2017-09-03T05:41:00.004Z,89.29
2017-09-03T05:41:59.996Z,87.95
2017-09-03T05:42:59.989Z,87.70
2017-09-03T05:43:59.979Z,86.65
2017-09-03T05:44:59.971Z,86.36
2017-09-03T05:45:59.962Z,85.45
2017-09-03T05:46:59.956Z,84.01
2017-09-03T05:47:59.947Z,83.58
2017-09-03T05:48:59.944Z,82.71
2017-09-03T05:49:59.940Z,81.41
2017-09-03T05:50:59.929Z,80.35
2017-09-03T05:51:59.921Z,80.16
2017-09-03T05:52:59.916Z,79.88
2017-09-03T05:53:59.910Z,78.86
2017-09-03T05:54:59.903Z,78.42
2017-09-03T05:55:59.894Z,77.75
2017-09-03T05:56:59.885Z,76.46
2017-09-03T05:57:59.879Z,76.27
2017-09-03T05:58:59.873Z,76.46
2017-09-03T05:59:59.867Z,76.27
2017-09-03T06:00:59.862Z,76.46
2017-09-03T06:01:59.856Z,76.37
2017-09-03T06:02:59.851Z,76.94
2017-09-03T06:03:59.844Z,77.00
2017-09-03T06:04:59.843Z,77.00
2017-09-03T06:05:59.839Z,77.76
2017-09-03T06:06:59.836Z,78.05
2017-09-03T06:07:59.827Z,77.67
2017-09-03T06:08:59.822Z,77.38
2017-09-03T06:09:59.817Z,77.42
2017-09-03T06:10:59.813Z,77.51
2017-09-03T06:11:59.808Z,76.90
2017-09-03T06:12:59.801Z,78.15
2017-09-03T06:13:59.796Z,77.71
2017-09-03T06:14:59.791Z,76.37
2017-09-03T06:15:59.786Z,76.56
2017-09-03T06:16:59.784Z,76.37
2017-09-03T06:17:59.780Z,76.65
2017-09-03T06:18:59.776Z,75.92
2017-09-03T06:19:59.772Z,75.79
2017-09-03T06:20:59.774Z,76.69
2017-09-03T06:21:59.768Z,75.77
2017-09-03T06:22:59.767Z,75.06
2017-09-03T06:23:59.762Z,74.48
2017-09-03T06:24:59.760Z,74.71
2017-09-03T06:25:59.757Z,73.50
2017-09-03T06:26:59.754Z,72.64
2017-09-03T06:27:59.753Z,72.48
2017-09-03T06:28:59.744Z,71.23
2017-09-03T06:29:59.743Z,69.95
2017-09-03T06:30:59.741Z,68.26
2017-09-03T06:31:59.737Z,67.61
2017-09-03T06:32:59.734Z,66.65
2017-09-03T06:33:59.733Z,66.42
2017-09-03T06:34:59.731Z,65.88
2017-09-03T06:35:59.735Z,65.11
2017-09-03T06:36:59.733Z,65.66
2017-09-03T06:37:59.729Z,65.33
2017-09-03T06:38:59.729Z,65.33
2017-09-03T06:39:59.726Z,66.10
2017-09-03T06:40:59.726Z,66.39
2017-09-03T06:41:59.725Z,66.74
2017-09-03T06:42:59.737Z,67.07
2017-09-03T06:43:59.724Z,66.58
2017-09-03T06:44:59.718Z,65.66
2017-09-03T06:45:59.718Z,65.43
2017-09-03T06:46:59.718Z,66.33
2017-09-03T06:47:59.720Z,65.69
2017-09-03T06:48:59.718Z,63.89
2017-09-03T06:49:59.717Z,63.63
2017-09-03T06:50:59.717Z,62.96
2017-09-03T06:51:59.716Z,61.54
2017-09-03T06:52:59.722Z,60.19
2017-09-03T06:53:59.723Z,60.48
2017-09-03T06:54:59.723Z,59.55
2017-09-03T06:55:59.729Z,59.38
2017-09-03T06:56:59.719Z,58.97
2017-09-03T06:57:59.720Z,58.48
2017-09-03T06:58:59.721Z,58.22
2017-09-03T06:59:59.720Z,57.57
2017-09-03T07:00:59.740Z,57.12
2017-09-03T07:01:59.729Z,56.18
2017-09-03T07:02:59.729Z,54.73
2017-09-03T07:03:59.729Z,54.71
2017-09-03T07:04:59.732Z,54.32
2017-09-03T07:05:59.732Z,53.81
2017-09-03T07:06:59.736Z,54.65
2017-09-03T07:07:59.736Z,56.07
2017-09-03T07:08:59.735Z,56.41
2017-09-03T07:09:59.736Z,55.47
2017-09-03T07:10:59.739Z,54.93
2017-09-03T07:11:59.741Z,53.71
2017-09-03T07:12:59.743Z,53.45
2017-09-03T07:13:59.745Z,53.61
2017-09-03T07:14:59.747Z,54.68
2017-09-03T07:15:59.753Z,54.35
2017-09-03T07:16:59.758Z,53.61
2017-09-03T07:17:59.759Z,53.41
2017-09-03T07:18:59.763Z,52.67
2017-09-03T07:19:59.765Z,53.55
2017-09-03T07:20:59.771Z,53.67
2017-09-03T07:21:59.773Z,52.66
2017-09-03T07:22:59.777Z,51.42
2017-09-03T07:23:59.783Z,51.68
2017-09-03T07:24:59.780Z,50.60
2017-09-03T07:25:59.782Z,51.30
2017-09-03T07:26:59.787Z,50.98
2017-09-03T07:27:59.791Z,51.50
2017-09-03T07:28:59.794Z,50.65
2017-09-03T07:29:59.797Z,50.29
2017-09-03T07:30:59.803Z,49.95
2017-09-03T07:31:59.807Z,49.68
2017-09-03T07:32:59.814Z,50.04
2017-09-03T07:33:59.818Z,50.14
2017-09-03T07:34:59.825Z,51.01
2017-09-03T07:35:59.827Z,50.89
2017-09-03T07:36:59.833Z,51.10
2017-09-03T07:37:59.838Z,51.08
2017-09-03T07:38:59.842Z,51.42
2017-09-03T07:39:59.846Z,49.63
2017-09-03T07:40:59.847Z,48.54
2017-09-03T07:41:59.853Z,49.29
2017-09-03T07:42:59.857Z,48.93
2017-09-03T07:43:59.861Z,48.81
2017-09-03T07:44:59.868Z,49.49
2017-09-03T07:45:59.871Z,48.83
2017-09-03T07:46:59.877Z,48.20
2017-09-03T07:47:59.883Z,47.23
2017-09-03T07:48:59.893Z,47.06
2017-09-03T07:49:59.899Z,46.70
2017-09-03T07:50:59.904Z,47.30
2017-09-03T07:51:59.909Z,47.20
2017-09-03T07:52:59.915Z,46.77
2017-09-03T07:53:59.925Z,46.09
2017-09-03T07:54:59.929Z,45.07
2017-09-03T07:55:59.933Z,43.75
2017-09-03T07:56:59.936Z,43.19
2017-09-03T07:57:59.941Z,42.10
2017-09-03T07:58:59.947Z,42.56
2017-09-03T07:59:59.954Z,43.22
2017-09-03T08:00:59.965Z,43.59
2017-09-03T08:01:59.971Z,43.82
2017-09-03T08:02:59.978Z,43.16
2017-09-03T08:03:59.984Z,42.35
2017-09-03T08:04:59.988Z,42.71
2017-09-03T08:05:59.996Z,42.46
2017-09-03T08:07:00.005Z,42.46
2017-09-03T08:08:00.010Z,41.86
2017-09-03T08:09:00.016Z,41.34
2017-09-03T08:10:00.025Z,41.98
2017-09-03T08:11:00.033Z,42.83
2017-09-03T08:12:00.040Z,43.12
2017-09-03T08:13:00.055Z,43.18
2017-09-03T08:14:00.060Z,43.72
2017-09-03T08:15:00.070Z,43.78
2017-09-03T08:16:00.076Z,43.85
2017-09-03T08:17:00.088Z,42.68
2017-09-03T08:18:00.093Z,41.73
2017-09-03T08:19:00.125Z,41.16
2017-09-03T08:20:00.108Z,40.89
2017-09-03T08:21:00.114Z,39.98
2017-09-03T08:22:00.123Z,40.39
2017-09-03T08:23:00.132Z,40.75
2017-09-03T08:24:00.146Z,40.81
2017-09-03T08:25:00.148Z,40.89
2017-09-03T08:26:00.158Z,39.72
2017-09-03T08:27:00.170Z,39.10
2017-09-03T08:28:00.332Z,38.82
2017-09-03T08:29:00.359Z,37.32
2017-09-03T08:30:00.256Z,35.58
2017-09-03T08:31:00.264Z,35.25
2017-09-03T08:32:00.309Z,35.80
2017-09-03T08:33:00.322Z,36.23
2017-09-03T08:34:00.292Z,35.79
2017-09-03T08:35:00.450Z,33.98
2017-09-03T08:36:00.398Z,32.35
2017-09-03T08:37:00.298Z,32.30
2017-09-03T08:38:00.293Z,32.99
2017-09-03T08:39:00.319Z,32.82
2017-09-03T08:40:00.297Z,31.96
2017-09-03T08:41:00.307Z,33.11
2017-09-03T08:42:00.317Z,34.32
2017-09-03T08:43:00.337Z,35.93
2017-09-03T08:44:00.342Z,36.68
2017-09-03T08:45:00.381Z,35.72
2017-09-03T08:46:00.526Z,35.17
2017-09-03T08:47:00.428Z,35.11
2017-09-03T08:48:00.468Z,34.34
2017-09-03T08:49:00.409Z,32.25
2017-09-03T08:50:00.513Z,31.60
2017-09-03T08:51:00.492Z,30.08
2017-09-03T08:52:00.465Z,30.46
2017-09-03T08:53:00.524Z,30.77
2017-09-03T08:54:00.522Z,31.77
2017-09-03T08:55:00.471Z,32.16
2017-09-03T08:56:00.538Z,31.91
2017-09-03T08:57:00.505Z,30.64
2017-09-03T08:58:00.493Z,31.88
2017-09-03T08:59:00.512Z,31.75
2017-09-03T09:00:00.523Z,31.80
2017-09-03T09:01:00.682Z,30.78
2017-09-03T09:02:00.714Z,30.11
2017-09-03T09:03:00.626Z,29.05
2017-09-03T09:04:00.718Z,28.57
2017-09-03T09:05:00.601Z,28.49
2017-09-03T09:06:00.731Z,27.81
2017-09-03T09:07:00.672Z,27.44
2017-09-03T09:08:00.682Z,27.16
2017-09-03T09:09:00.718Z,26.68
2017-09-03T09:10:00.732Z,26.13
2017-09-03T09:11:00.744Z,25.34
2017-09-03T09:12:00.779Z,25.54
2017-09-03T09:13:00.750Z,26.78
2017-09-03T09:14:00.707Z,27.66
2017-09-03T09:15:00.715Z,27.94
2017-09-03T09:16:00.725Z,28.41
2017-09-03T09:17:00.742Z,27.69
2017-09-03T09:18:00.774Z,27.12
2017-09-03T09:19:00.852Z,26.85
2017-09-03T09:20:00.835Z,26.48
2017-09-03T09:21:00.877Z,25.24
2017-09-03T09:22:00.814Z,24.37
2017-09-03T09:23:00.917Z,25.34
2017-09-03T09:24:00.939Z,25.98
2017-09-03T09:25:00.877Z,26.51
2017-09-03T09:26:01.021Z,26.34
2017-09-03T09:27:00.933Z,25.56
2017-09-03T09:28:00.979Z,24.73
2017-09-03T09:29:00.992Z,23.83
2017-09-03T09:30:00.974Z,24.00
2017-09-03T09:31:00.942Z,23.50
2017-09-03T09:32:00.947Z,24.47
2017-09-03T09:33:00.956Z,25.06
2017-09-03T09:34:02.223Z,26.55
2017-09-03T09:35:01.075Z,26.72
2017-09-03T09:36:01.060Z,27.37
2017-09-03T09:37:01.125Z,26.54
2017-09-03T09:38:01.081Z,25.56
2017-09-03T09:39:01.066Z,24.70
2017-09-03T09:40:01.141Z,23.33
2017-09-03T09:41:01.173Z,23.14
2017-09-03T09:42:01.471Z,24.06
2017-09-03T09:43:01.180Z,24.06
2017-09-03T09:44:01.171Z,24.59
2017-09-03T09:45:01.162Z,25.79
2017-09-03T09:46:01.269Z,26.42
2017-09-03T09:47:01.169Z,26.26
2017-09-03T09:48:01.188Z,25.27
2017-09-03T09:49:01.202Z,24.29
2017-09-03T09:50:01.242Z,24.01
2017-09-03T09:51:01.292Z,23.52
2017-09-03T09:52:01.342Z,23.73
2017-09-03T09:53:01.301Z,23.20
2017-09-03T09:54:01.351Z,24.32
2017-09-03T09:55:01.315Z,23.16
2017-09-03T09:56:01.300Z,22.67
2017-09-03T09:57:01.356Z,22.36
2017-09-03T09:58:01.415Z,22.12
2017-09-03T09:59:01.465Z,23.14
2017-09-03T10:00:01.418Z,22.84
2017-09-03T10:01:01.490Z,22.67
2017-09-03T10:02:01.501Z,22.25
2017-09-03T10:03:01.408Z,22.82
2017-09-03T10:04:01.433Z,23.28
2017-09-03T10:05:01.434Z,23.67
2017-09-03T10:06:01.507Z,24.15
2017-09-03T10:07:01.508Z,24.41
2017-09-03T10:08:01.592Z,25.90
2017-09-03T10:09:01.616Z,25.50
2017-09-03T10:10:01.534Z,26.83
2017-09-03T10:11:01.551Z,26.58
2017-09-03T10:12:01.629Z,26.04
2017-09-03T10:13:01.640Z,26.64
2017-09-03T10:14:01.625Z,26.62
2017-09-03T10:15:01.592Z,26.54
2017-09-03T10:16:01.595Z,26.05
2017-09-03T10:17:01.715Z,26.72
2017-09-03T10:18:01.666Z,26.81
2017-09-03T10:19:01.636Z,28.04
2017-09-03T10:20:01.653Z,28.16
2017-09-03T10:21:01.669Z,28.47
2017-09-03T10:22:01.808Z,28.12
2017-09-03T10:23:01.828Z,26.48
2017-09-03T10:24:01.764Z,27.10
2017-09-03T10:25:01.892Z,27.73
2017-09-03T10:26:01.857Z,27.34
2017-09-03T10:27:01.881Z,27.73
2017-09-03T10:28:01.926Z,28.69
2017-09-03T10:29:01.861Z,28.92
2017-09-03T10:30:01.887Z,28.83
2017-09-03T10:31:01.908Z,28.36
2017-09-03T10:32:01.920Z,28.50
2017-09-03T10:33:01.908Z,28.28
2017-09-03T10:34:01.902Z,29.18
2017-09-03T10:35:01.907Z,29.66
2017-09-03T10:36:01.867Z,30.10
2017-09-03T10:37:01.878Z,31.64
2017-09-03T10:38:01.992Z,33.34
2017-09-03T10:39:01.978Z,34.72
2017-09-03T10:40:01.975Z,36.04
2017-09-03T10:41:02.041Z,38.06
2017-09-03T10:42:02.067Z,38.66
2017-09-03T10:43:02.020Z,38.23
2017-09-03T10:44:02.020Z,37.64
2017-09-03T10:45:02.002Z,35.53
2017-09-03T10:46:02.089Z,33.48
2017-09-03T10:47:02.014Z,31.95
2017-09-03T10:48:02.051Z,30.91
2017-09-03T10:49:02.065Z,29.27
2017-09-03T10:50:02.051Z,28.50
2017-09-03T10:51:02.046Z,27.94
2017-09-03T10:52:02.032Z,29.32
2017-09-03T10:53:02.049Z,32.32
2017-09-03T10:54:02.086Z,34.54
2017-09-03T10:55:02.100Z,36.08
2017-09-03T10:56:02.090Z,36.95
2017-09-03T10:57:02.140Z,38.13
2017-09-03T10:58:02.147Z,38.44
2017-09-03T10:59:02.145Z,38.50
2017-09-03T11:00:02.117Z,37.13
2017-09-03T11:01:02.230Z,34.67
2017-09-03T11:02:02.242Z,32.35
2017-09-03T11:03:02.253Z,29.91
2017-09-03T11:04:02.225Z,29.28
2017-09-03T11:05:02.315Z,30.11
2017-09-03T11:06:02.198Z,30.29
2017-09-03T11:07:02.173Z,30.83
2017-09-03T11:08:02.181Z,30.67
2017-09-03T11:09:02.196Z,31.87
2017-09-03T11:10:02.352Z,32.68
2017-09-03T11:11:02.311Z,32.11
2017-09-03T11:12:02.349Z,33.04
2017-09-03T11:13:02.285Z,34.11
2017-09-03T11:14:02.246Z,34.24
2017-09-03T11:15:02.402Z,34.24
2017-09-03T11:16:02.300Z,33.80
2017-09-03T11:17:02.390Z,32.94
2017-09-03T11:18:02.368Z,31.99
2017-09-03T11:19:02.406Z,29.98
2017-09-03T11:20:02.387Z,29.21
2017-09-03T11:21:02.416Z,29.41
2017-09-03T11:22:02.421Z,29.61
2017-09-03T11:23:02.398Z,28.91
2017-09-03T11:24:02.341Z,28.97
2017-09-03T11:25:02.343Z,29.32
2017-09-03T11:26:02.352Z,30.82
2017-09-03T11:27:02.420Z,31.38
2017-09-03T11:28:02.485Z,32.37
2017-09-03T11:29:02.457Z,33.06
2017-09-03T11:30:02.448Z,33.41
2017-09-03T11:31:02.411Z,33.78
2017-09-03T11:32:02.531Z,33.86
2017-09-03T11:33:02.474Z,35.01
2017-09-03T11:34:02.539Z,35.88
2017-09-03T11:35:02.503Z,36.97
2017-09-03T11:36:02.560Z,36.58
2017-09-03T11:37:02.564Z,35.90
2017-09-03T11:38:02.488Z,36.58
2017-09-03T11:39:02.556Z,36.58
2017-09-03T11:40:02.570Z,36.95
2017-09-03T11:41:02.476Z,38.52
2017-09-03T11:42:02.473Z,38.32
2017-09-03T11:43:02.479Z,38.73
2017-09-03T11:44:02.496Z,38.34
2017-09-03T11:45:02.548Z,36.95
2017-09-03T11:46:02.493Z,37.07
2017-09-03T11:47:02.567Z,37.16
2017-09-03T11:48:02.636Z,36.97
2017-09-03T11:49:02.585Z,37.35
2017-09-03T11:50:02.545Z,35.98
2017-09-03T11:51:02.584Z,36.25
2017-09-03T11:52:02.693Z,35.96
2017-09-03T11:53:02.680Z,36.44
2017-09-03T11:54:02.612Z,36.54
2017-09-03T11:55:02.671Z,36.60
2017-09-03T11:56:02.537Z,37.01
2017-09-03T11:57:02.538Z,37.59
2017-09-03T11:58:02.542Z,37.96
2017-09-03T11:59:02.543Z,37.75
2017-09-03T12:00:02.546Z,38.54
2017-09-03T12:01:02.549Z,40.09
2017-09-03T12:02:02.553Z,39.32
2017-09-03T12:03:02.561Z,38.54
2017-09-03T12:04:02.569Z,39.53
2017-09-03T12:05:03.749Z,39.06
2017-09-03T12:06:02.567Z,38.27
2017-09-03T12:07:02.571Z,37.77
2017-09-03T12:08:02.573Z,38.25
2017-09-03T12:09:02.575Z,39.32
2017-09-03T12:10:02.578Z,39.59
2017-09-03T12:11:02.585Z,40.15
2017-09-03T12:12:02.582Z,40.50
2017-09-03T12:13:02.581Z,40.96
2017-09-03T12:14:02.582Z,41.91
2017-09-03T12:15:02.585Z,42.48
2017-09-03T12:16:02.585Z,43.28
2017-09-03T12:17:02.592Z,43.37
2017-09-03T12:18:02.599Z,43.28
2017-09-03T12:19:02.597Z,43.18
2017-09-03T12:20:02.595Z,43.18
2017-09-03T12:21:02.593Z,43.76
2017-09-03T12:22:02.594Z,44.82
2017-09-03T12:23:02.594Z,46.30
2017-09-03T12:24:02.596Z,46.10
2017-09-03T12:25:02.598Z,46.22
2017-09-03T12:26:02.598Z,44.96
2017-09-03T12:27:02.601Z,44.77
2017-09-03T12:28:02.601Z,44.57
2017-09-03T12:29:02.604Z,44.40
2017-09-03T12:30:02.606Z,43.73
2017-09-03T12:31:02.607Z,43.55
2017-09-03T12:32:02.607Z,43.24
2017-09-03T12:33:02.607Z,43.05
2017-09-03T12:34:02.609Z,43.34
2017-09-03T12:35:02.610Z,43.65
2017-09-03T12:36:02.609Z,43.87
2017-09-03T12:37:02.606Z,43.29
2017-09-03T12:38:02.613Z,42.63
2017-09-03T12:39:02.609Z,42.82
2017-09-03T12:40:02.608Z,41.76
2017-09-03T12:41:02.608Z,41.06
2017-09-03T12:42:02.611Z,40.58
2017-09-03T12:43:02.612Z,40.96
2017-09-03T12:44:02.613Z,40.67
2017-09-03T12:45:02.617Z,40.86
2017-09-03T12:46:02.619Z,41.47
2017-09-03T12:47:02.620Z,40.58
2017-09-03T12:48:02.620Z,40.21
2017-09-03T12:49:02.621Z,40.31
2017-09-03T12:50:02.624Z,39.82
2017-09-03T12:51:02.633Z,38.96
2017-09-03T12:52:02.628Z,38.96